Time;durP1;ratioP1;P1;durP2;ratioP2;P2;SDS_P1;SDS_P2;PMS_P1;PMS_P2;Temp;Humidity;BMP_temperature;BMP_pressure;BME280_temperature;BME280_humidity;BME280_pressure;Samples;Min_cycle;Max_cycle;Signal;HPM_P1;HPM_P2
2021/07/07 00:01:02;;;;;;;11.85;6.85;;;;;;;20.84;54.56;100244.97;5064499;28;20040;-60
2021/07/07 00:03:29;;;;;;;11.07;6.50;;;;;;;20.76;54.79;100239.25;5071159;28;20047;-60
2021/07/07 00:05:55;;;;;;;14.15;7.05;;;;;;;20.79;54.73;100242.59;5084106;28;20051;-60
2021/07/07 00:08:21;;;;;;;12.68;7.60;;;;;;;20.76;55.09;100253.25;5084118;28;20329;-60
2021/07/07 00:10:46;;;;;;;10.80;6.40;;;;;;;20.83;54.48;100254.63;5084259;28;20024;-61
2021/07/07 00:13:13;;;;;;;14.57;7.22;;;;;;;20.77;55.32;100249.69;5084137;28;20348;-60
2021/07/07 00:15:39;;;;;;;10.68;7.03;;;;;;;20.78;55.29;100254.03;5084280;28;20348;-59
2021/07/07 00:18:08;;;;;;;10.90;6.85;;;;;;;20.53;55.58;100221.09;5083987;28;20036;-59
2021/07/07 00:23:07;;;;;;;9.23;6.38;;;;;;;20.70;55.47;100261.50;5083891;28;20054;-60
2021/07/07 00:25:33;;;;;;;10.05;6.47;;;;;;;20.64;56.12;100259.19;5084111;28;20062;-59
2021/07/07 00:27:59;;;;;;;17.10;6.90;;;;;;;20.66;55.75;100257.31;5083992;28;20238;-59
2021/07/07 00:30:27;;;;;;;12.27;7.30;;;;;;;20.56;56.44;100254.31;5083980;28;20028;-59
2021/07/07 00:32:54;;;;;;;9.55;6.78;;;;;;;20.61;56.50;100264.63;5083710;28;20051;-60
2021/07/07 00:35:19;;;;;;;12.35;7.10;;;;;;;20.59;56.60;100261.19;5043843;28;20049;-61
2021/07/07 00:37:45;;;;;;;11.25;7.10;;;;;;;20.57;56.56;100268.34;5043924;28;20021;-59
2021/07/07 00:40:12;;;;;;;12.52;6.63;;;;;;;20.44;57.75;100276.88;5043825;28;20037;-59
2021/07/07 00:42:38;;;;;;;10.15;7.07;;;;;;;20.28;57.75;100278.59;5043818;28;20057;-59
2021/07/07 00:45:04;;;;;;;9.63;6.57;;;;;;;20.11;57.81;100276.84;5043812;28;20045;-59
2021/07/07 00:47:30;;;;;;;10.75;6.25;;;;;;;20.03;58.21;100281.69;5043753;28;20049;-59
2021/07/07 00:49:57;;;;;;;10.88;6.72;;;;;;;20.04;57.77;100272.84;5043921;28;20071;-59
2021/07/07 00:52:23;;;;;;;8.52;7.05;;;;;;;19.83;58.58;100241.47;5043672;28;20041;-59
2021/07/07 00:54:49;;;;;;;10.88;7.55;;;;;;;20.11;58.02;100280.34;5043520;28;20119;-60
2021/07/07 00:57:16;;;;;;;10.27;6.93;;;;;;;20.05;58.55;100280.69;5043725;28;20338;-62
2021/07/07 00:59:49;;;;;;;9.90;7.03;;;;;;;20.12;58.97;100302.22;5043600;28;20052;-61
2021/07/07 01:02:17;;;;;;;11.18;8.27;;;;;;;20.11;58.88;100304.03;5043574;28;20152;-61
2021/07/07 01:04:43;;;;;;;13.45;7.47;;;;;;;20.08;58.96;100296.28;5078201;28;20044;-61
2021/07/07 01:07:09;;;;;;;13.23;7.55;;;;;;;20.05;59.20;100296.47;5083485;28;20308;-62
2021/07/07 01:09:36;;;;;;;13.20;7.10;;;;;;;20.00;59.28;100290.56;5083623;28;20313;-61
2021/07/07 01:12:02;;;;;;;11.30;7.15;;;;;;;19.98;59.49;100301.16;5083517;28;20063;-61
2021/07/07 01:14:28;;;;;;;9.98;6.75;;;;;;;19.97;59.61;100296.00;5083428;28;20036;-62
2021/07/07 01:16:54;;;;;;;12.05;7.70;;;;;;;20.00;59.84;100307.19;5083478;28;20083;-63
2021/07/07 01:19:21;;;;;;;12.60;7.82;;;;;;;19.93;59.57;100290.00;5083405;28;20044;-62
2021/07/07 01:21:51;;;;;;;11.85;7.63;;;;;;;19.98;60.02;100308.19;5083416;28;20266;-62
2021/07/07 01:24:19;;;;;;;15.75;8.38;;;;;;;19.95;60.33;100303.94;5083417;28;20344;-62
2021/07/07 01:26:45;;;;;;;11.45;7.43;;;;;;;19.95;59.85;100311.84;5083383;28;20048;-62
2021/07/07 01:29:12;;;;;;;13.93;7.97;;;;;;;19.95;60.07;100313.59;5071024;28;20344;-60
2021/07/07 01:31:41;;;;;;;13.25;7.43;;;;;;;19.88;60.46;100312.22;5063279;28;20085;-61
2021/07/07 01:34:07;;;;;;;12.18;7.75;;;;;;;19.86;60.36;100316.72;5063154;28;20322;-60
2021/07/07 01:36:35;;;;;;;18.45;7.57;;;;;;;19.85;60.89;100312.38;5063196;28;20045;-60
2021/07/07 01:39:04;;;;;;;13.40;8.23;;;;;;;19.82;61.32;100324.75;5063164;28;20043;-60
2021/07/07 01:41:30;;;;;;;11.80;7.63;;;;;;;19.76;60.82;100311.84;5063108;28;20052;-60
2021/07/07 01:43:55;;;;;;;14.25;7.55;;;;;;;19.81;61.29;100320.41;5063081;28;20045;-60
2021/07/07 01:46:21;;;;;;;15.13;8.10;;;;;;;19.77;61.21;100318.81;5063110;28;20087;-60
2021/07/07 01:48:47;;;;;;;12.70;7.88;;;;;;;19.79;61.26;100324.03;5063071;28;20067;-60
2021/07/07 01:51:13;;;;;;;14.80;7.57;;;;;;;19.78;61.62;100327.56;5063047;28;20326;-60
2021/07/07 01:53:39;;;;;;;11.50;7.28;;;;;;;19.82;61.42;100330.00;5045420;28;20214;-60
2021/07/07 01:56:05;;;;;;;17.38;7.80;;;;;;;19.76;61.94;100338.16;5062897;28;20068;-60
2021/07/07 01:58:31;;;;;;;13.98;8.23;;;;;;;19.75;61.60;100331.22;5062977;28;20199;-60
2021/07/07 02:00:58;;;;;;;13.50;8.50;;;;;;;19.75;61.74;100335.59;5062799;28;20048;-60
2021/07/07 02:03:23;;;;;;;15.00;8.55;;;;;;;19.74;62.03;100337.38;5069129;28;20024;-59
2021/07/07 02:05:49;;;;;;;12.15;7.72;;;;;;;19.77;61.70;100337.22;5084287;28;20028;-59
2021/07/07 02:08:17;;;;;;;15.27;9.45;;;;;;;19.73;62.18;100322.53;5086498;28;20237;-59
2021/07/07 02:10:43;;;;;;;13.13;8.93;;;;;;;19.86;62.23;100340.38;5086554;28;20063;-60
2021/07/07 02:13:11;;;;;;;11.23;7.97;;;;;;;19.83;62.56;100338.72;5068748;28;20321;-60
2021/07/07 02:15:38;;;;;;;12.65;8.23;;;;;;;19.88;62.09;100338.50;5086418;28;20044;-60
2021/07/07 02:18:06;;;;;;;19.50;9.52;;;;;;;19.53;62.33;100291.13;5086383;28;20040;-62
2021/07/07 02:20:39;;;;;;;15.93;8.57;;;;;;;19.54;62.19;100282.31;5086346;28;20268;-61
2021/07/07 02:23:07;;;;;;;12.30;8.25;;;;;;;19.90;62.58;100337.50;5086326;28;20040;-61
2021/07/07 02:25:35;;;;;;;16.10;9.75;;;;;;;19.93;62.61;100350.50;5086259;28;20044;-61
2021/07/07 02:28:03;;;;;;;13.45;8.30;;;;;;;20.00;62.18;100343.16;5086280;28;20040;-61
2021/07/07 02:30:32;;;;;;;15.02;8.88;;;;;;;19.76;62.63;100305.75;5086112;28;20304;-62
2021/07/07 02:32:59;;;;;;;13.18;8.75;;;;;;;20.07;61.82;100349.81;5086235;28;20048;-59
2021/07/07 02:35:33;;;;;;;13.90;8.88;;;;;;;20.07;62.62;100354.22;5086015;28;20052;-59
2021/07/07 02:38:00;;;;;;;17.92;8.98;;;;;;;20.17;61.90;100355.47;5086067;28;20356;-59
2021/07/07 02:40:29;;;;;;;13.55;8.40;;;;;;;20.21;62.12;100359.63;5085966;28;20056;-59
2021/07/07 02:42:55;;;;;;;16.25;8.80;;;;;;;20.25;62.22;100358.56;5085896;28;20040;-60
2021/07/07 02:45:22;;;;;;;13.57;9.07;;;;;;;20.26;61.87;100362.88;5085871;28;20024;-60
2021/07/07 02:47:48;;;;;;;12.35;8.52;;;;;;;20.38;62.42;100360.53;5085863;28;20047;-60
2021/07/07 02:50:16;;;;;;;13.50;9.10;;;;;;;20.33;61.96;100350.25;5085922;28;20055;-60
2021/07/07 02:52:44;;;;;;;15.20;8.88;;;;;;;20.37;62.20;100357.06;5085737;28;20063;-60
2021/07/07 02:55:11;;;;;;;13.38;8.88;;;;;;;20.51;62.03;100370.34;5085750;28;20043;-60
2021/07/07 02:57:57;;;;;;;19.33;9.18;;;;;;;20.47;62.43;100366.19;5085755;28;20055;-60
2021/07/07 03:00:34;;;;;;;16.95;9.10;;;;;;;20.32;62.27;100332.75;5085771;28;20060;-60
2021/07/07 03:03:17;;;;;;;15.60;9.27;;;;;;;20.59;61.68;100372.56;5085586;28;20028;-61
2021/07/07 03:06:02;;;;;;;15.25;9.10;;;;;;;20.69;61.41;100367.72;5085608;28;20344;-61
2021/07/07 03:08:30;;;;;;;15.57;9.32;;;;;;;20.69;61.20;100371.22;5085488;28;20266;-61
2021/07/07 03:10:57;;;;;;;22.52;11.73;;;;;;;20.55;56.22;100378.09;5085455;28;20045;-60
2021/07/07 03:13:24;;;;;;;19.60;10.95;;;;;;;20.48;56.53;100322.31;5085455;28;20036;-61
2021/07/07 03:15:51;;;;;;;17.55;9.77;;;;;;;21.01;58.15;100375.69;5085205;28;20092;-62
2021/07/07 03:18:18;;;;;;;15.38;9.55;;;;;;;21.08;59.21;100382.34;5085246;28;20051;-62
2021/07/07 03:20:46;;;;;;;18.83;9.63;;;;;;;21.02;55.98;100398.44;5085178;28;20271;-61
2021/07/07 03:23:14;;;;;;;16.30;9.65;;;;;;;20.98;54.34;100394.31;5085093;28;20040;-61
2021/07/07 03:25:40;;;;;;;16.25;9.85;;;;;;;21.09;54.72;100378.78;5085159;28;20279;-60
2021/07/07 03:28:06;;;;;;;15.32;9.25;;;;;;;21.15;53.61;100383.72;5067356;28;20070;-60
2021/07/07 03:30:32;;;;;;;13.18;8.65;;;;;;;21.23;52.87;100387.72;5085091;28;20055;-60
2021/07/07 03:32:59;;;;;;;17.48;9.02;;;;;;;21.46;52.71;100387.28;5085004;28;20059;-61
2021/07/07 03:35:26;;;;;;;17.38;8.43;;;;;;;21.62;52.70;100389.09;5084986;28;20062;-60
2021/07/07 03:37:53;;;;;;;12.60;7.65;;;;;;;22.11;52.19;100385.44;5084840;28;20313;-61
2021/07/07 03:40:20;;;;;;;12.57;8.15;;;;;;;22.74;51.74;100382.53;5084892;28;20040;-61
2021/07/07 03:42:46;;;;;;;12.65;8.07;;;;;;;22.42;50.82;100387.16;5084654;28;20035;-60
2021/07/07 03:45:15;;;;;;;13.77;8.20;;;;;;;22.40;52.18;100381.09;5084769;28;20118;-60
2021/07/07 03:47:40;;;;;;;16.15;10.13;;;;;;;22.52;52.74;100396.22;5084672;28;20051;-60
2021/07/07 03:50:07;;;;;;;13.98;8.73;;;;;;;22.58;53.13;100405.56;5084683;28;20020;-60
2021/07/07 03:52:34;;;;;;;16.83;9.35;;;;;;;22.66;52.70;100400.66;5084381;28;20044;-61
2021/07/07 03:55:00;;;;;;;16.08;9.02;;;;;;;22.54;51.57;100409.31;5084480;28;20040;-60
2021/07/07 03:57:26;;;;;;;13.60;8.68;;;;;;;22.66;51.87;100407.72;5084380;28;20038;-60
2021/07/07 03:59:51;;;;;;;16.25;9.05;;;;;;;22.49;50.59;100408.72;5084538;28;20082;-59
2021/07/07 04:02:17;;;;;;;15.02;9.10;;;;;;;22.63;52.08;100408.78;5084415;28;20070;-60
2021/07/07 04:04:43;;;;;;;16.27;8.60;;;;;;;22.68;51.79;100401.41;5084328;28;20092;-60
2021/07/07 04:07:10;;;;;;;12.43;8.50;;;;;;;22.74;51.33;100406.31;5084131;28;20056;-60
2021/07/07 04:09:36;;;;;;;19.77;8.98;;;;;;;22.74;52.47;100406.31;5084249;28;20040;-61
2021/07/07 04:12:02;;;;;;;15.18;9.13;;;;;;;22.53;51.34;100403.19;5084305;28;20205;-59
2021/07/07 04:14:29;;;;;;;14.90;8.60;;;;;;;22.61;51.28;100420.38;5084038;28;20048;-59
2021/07/07 04:16:58;;;;;;;15.55;8.95;;;;;;;22.66;51.65;100391.88;5083414;28;20115;-59
2021/07/07 04:19:25;;;;;;;20.85;9.13;;;;;;;22.66;50.75;100400.66;5083724;28;20356;-61
2021/07/07 04:21:52;;;;;;;16.00;9.65;;;;;;;22.67;51.55;100415.53;5083945;28;20036;-61
2021/07/07 04:24:19;;;;;;;16.20;8.50;;;;;;;22.77;51.59;100400.00;5083976;28;20033;-61
2021/07/07 04:26:45;;;;;;;15.13;8.82;;;;;;;22.78;51.19;100403.50;5083886;28;20040;-60
2021/07/07 04:29:12;;;;;;;15.27;9.00;;;;;;;22.95;50.86;100407.75;5083538;28;20050;-60
2021/07/07 04:31:39;;;;;;;16.83;8.23;;;;;;;23.00;51.41;100410.94;5084015;28;20060;-61
2021/07/07 04:34:05;;;;;;;16.67;8.82;;;;;;;22.98;51.73;100418.13;5077991;28;20045;-61
2021/07/07 04:36:33;;;;;;;14.23;8.25;;;;;;;22.99;51.87;100420.69;5063847;28;20059;-61
2021/07/07 04:38:59;;;;;;;18.40;9.02;;;;;;;23.10;50.98;100412.94;5063716;28;20052;-60
2021/07/07 04:41:26;;;;;;;16.55;8.75;;;;;;;23.02;50.83;100417.00;5063840;28;20061;-61
2021/07/07 04:43:52;;;;;;;18.80;9.13;;;;;;;23.11;50.45;100421.72;5063619;28;20250;-60
2021/07/07 04:46:18;;;;;;;14.65;8.18;;;;;;;23.20;50.38;100407.97;5063739;28;20056;-61
2021/07/07 04:48:47;;;;;;;15.10;8.57;;;;;;;23.32;50.52;100418.72;5063527;28;20044;-59
2021/07/07 04:51:14;;;;;;;20.17;8.45;;;;;;;23.44;51.28;100424.06;5063625;28;20060;-60
2021/07/07 04:53:40;;;;;;;13.82;8.15;;;;;;;23.43;51.21;100421.53;5063634;28;20056;-61
2021/07/07 04:56:07;;;;;;;15.38;8.00;;;;;;;23.68;50.02;100422.59;5063533;28;20055;-61
2021/07/07 04:58:34;;;;;;;19.08;8.90;;;;;;;23.54;50.53;100418.19;5063386;28;20267;-62
2021/07/07 05:01:00;;;;;;;15.10;7.88;;;;;;;23.77;48.92;100430.78;5063398;28;20048;-61
2021/07/07 05:03:27;;;;;;;12.13;7.25;;;;;;;23.89;48.35;100428.31;5069959;28;20085;-61
2021/07/07 05:05:53;;;;;;;8.52;6.57;;;;;;;23.98;47.95;100424.22;5083329;28;20067;-60
2021/07/07 05:08:19;;;;;;;12.60;6.93;;;;;;;23.98;47.73;100427.69;5083412;28;20060;-61
2021/07/07 05:10:46;;;;;;;16.25;6.78;;;;;;;24.03;47.44;100419.44;5083364;28;20017;-60
2021/07/07 05:13:13;;;;;;;17.98;7.13;;;;;;;24.26;47.13;100429.38;5065663;28;20048;-60
2021/07/07 05:15:38;;;;;;;13.40;7.13;;;;;;;24.37;46.78;100423.38;5082188;28;20060;-60
2021/07/07 05:18:06;;;;;;;15.10;6.45;;;;;;;24.50;47.07;100435.75;5082048;28;20029;-60
2021/07/07 05:20:33;;;;;;;16.48;7.90;;;;;;;24.38;46.12;100432.97;5081979;28;20061;-60
2021/07/07 05:23:01;;;;;;;12.05;6.80;;;;;;;24.60;46.67;100432.41;5081700;28;20040;-60
2021/07/07 05:25:27;;;;;;;13.98;7.47;;;;;;;24.75;45.71;100437.63;5081892;28;20451;-60
2021/07/07 05:27:53;;;;;;;11.98;6.93;;;;;;;24.80;45.10;100440.81;5080604;28;20051;-59
2021/07/07 05:30:24;;;;;;;12.70;6.80;;;;;;;24.98;46.45;100436.00;5081487;28;20036;-60
2021/07/07 05:32:50;;;;;;;10.82;5.80;;;;;;;24.90;44.05;100435.72;5081364;28;20032;-60
2021/07/07 05:35:16;;;;;;;10.25;5.88;;;;;;;25.02;43.15;100441.97;5081671;28;20059;-59
2021/07/07 05:37:42;;;;;;;10.05;5.00;;;;;;;25.12;44.09;100438.53;5081338;28;20016;-60
2021/07/07 05:40:08;;;;;;;13.32;5.40;;;;;;;25.28;44.56;100453.38;5081835;28;20024;-60
2021/07/07 05:42:34;;;;;;;13.32;5.93;;;;;;;25.39;45.01;100447.34;5085172;28;20241;-60
2021/07/07 05:45:00;;;;;;;9.10;5.68;;;;;;;25.41;46.11;100442.75;5085430;28;20019;-60
2021/07/07 05:47:26;;;;;;;7.82;5.07;;;;;;;25.23;45.11;100451.06;5085512;28;20036;-60
2021/07/07 05:49:56;;;;;;;7.07;4.97;;;;;;;25.44;44.91;100455.78;5085163;28;20024;-60
2021/07/07 05:52:22;;;;;;;11.13;5.22;;;;;;;25.47;42.89;100452.97;5085633;28;20048;-60
2021/07/07 05:54:48;;;;;;;11.85;5.57;;;;;;;25.32;41.92;100463.69;5085814;28;20066;-60
2021/07/07 05:57:14;;;;;;;10.10;4.78;;;;;;;25.66;43.24;100452.47;5085002;28;20302;-60
2021/07/07 05:59:40;;;;;;;10.65;4.88;;;;;;;25.60;41.17;100461.72;5084967;28;20029;-60
2021/07/07 06:02:05;;;;;;;9.43;5.53;;;;;;;25.66;41.51;100458.59;5084887;28;20025;-60
2021/07/07 06:04:31;;;;;;;10.10;4.85;;;;;;;26.00;42.07;100455.31;5084649;28;20020;-60
2021/07/07 06:06:57;;;;;;;8.05;4.65;;;;;;;26.27;40.35;100459.56;5084493;28;20052;-60
2021/07/07 06:09:23;;;;;;;10.18;4.80;;;;;;;26.28;41.71;100450.59;5084489;28;20232;-60
2021/07/07 06:11:50;;;;;;;9.98;5.28;;;;;;;26.56;40.76;100457.31;5084337;28;20024;-59
2021/07/07 06:14:16;;;;;;;8.32;4.97;;;;;;;26.65;40.62;100446.00;5084784;28;20062;-60
2021/07/07 06:16:43;;;;;;;8.95;4.63;;;;;;;26.57;39.19;100448.41;5084397;28;20042;-60
2021/07/07 06:19:08;;;;;;;6.10;4.63;;;;;;;26.62;40.58;100453.34;5084363;28;20048;-60
2021/07/07 06:21:34;;;;;;;11.40;4.70;;;;;;;26.45;41.07;100451.97;5084345;28;20013;-59
2021/07/07 06:24:01;;;;;;;9.77;4.47;;;;;;;26.44;40.53;100452.97;5085603;28;20183;-58
2021/07/07 06:26:28;;;;;;;12.82;3.83;;;;;;;26.48;38.46;100459.72;5085760;28;20055;-59
2021/07/07 06:28:55;;;;;;;6.05;3.30;;;;;;;26.62;38.01;100461.31;5068010;28;20052;-59
2021/07/07 06:31:25;;;;;;;4.57;2.90;;;;;;;26.34;36.74;100424.44;5085865;28;20048;-60
2021/07/07 06:33:51;;;;;;;4.80;3.00;;;;;;;26.39;37.34;100460.44;5086149;28;20048;-60
2021/07/07 06:36:16;;;;;;;6.03;3.30;;;;;;;26.46;37.38;100466.97;5086138;28;20070;-60
2021/07/07 06:38:42;;;;;;;7.03;3.03;;;;;;;26.46;36.68;100466.97;5086013;28;20082;-60
2021/07/07 06:41:08;;;;;;;3.95;2.78;;;;;;;26.56;37.48;100460.00;5086093;28;20091;-60
2021/07/07 06:43:34;;;;;;;6.43;2.58;;;;;;;26.72;35.59;100458.84;5085986;28;20022;-60
2021/07/07 06:46:00;;;;;;;3.67;2.67;;;;;;;26.85;36.77;100462.25;5068133;28;20016;-60
2021/07/07 06:48:26;;;;;;;4.88;2.40;;;;;;;26.86;36.97;100462.16;5085983;28;20066;-59
2021/07/07 06:50:53;;;;;;;4.15;2.30;;;;;;;26.89;35.99;100461.03;5085459;28;20252;-59
2021/07/07 06:53:23;;;;;;;4.43;2.50;;;;;;;26.86;37.13;100466.59;5085836;28;20067;-60
2021/07/07 06:55:49;;;;;;;2.55;1.95;;;;;;;26.68;34.08;100451.13;5067923;28;20037;-59
2021/07/07 06:58:15;;;;;;;4.07;2.38;;;;;;;26.82;34.97;100465.13;5086081;28;20055;-59
2021/07/07 07:00:41;;;;;;;6.82;2.50;;;;;;;26.73;34.93;100465.88;5085782;28;20051;-59
2021/07/07 07:03:07;;;;;;;3.95;2.22;;;;;;;26.97;37.22;100461.28;5085586;28;20012;-59
2021/07/07 07:05:34;;;;;;;5.97;2.42;;;;;;;26.98;35.83;100465.66;5085584;28;20013;-59
2021/07/07 07:08:01;;;;;;;8.02;2.55;;;;;;;26.95;34.13;100465.91;5085159;28;20075;-59
2021/07/07 07:10:27;;;;;;;3.58;2.20;;;;;;;27.13;35.42;100460.94;5085392;28;20044;-59
2021/07/07 07:12:53;;;;;;;4.00;2.50;;;;;;;27.13;33.86;100462.75;5085183;28;20077;-59
2021/07/07 07:15:19;;;;;;;3.97;2.33;;;;;;;27.19;34.69;100459.59;5085255;28;20236;-60
2021/07/07 07:17:45;;;;;;;7.47;2.65;;;;;;;27.26;34.51;100462.63;5085388;28;20055;-61
2021/07/07 07:20:14;;;;;;;3.75;2.40;;;;;;;27.23;33.90;100418.50;5085287;28;20269;-59
2021/07/07 07:22:40;;;;;;;4.40;2.25;;;;;;;27.37;35.15;100463.50;5085158;28;20348;-59
2021/07/07 07:25:08;;;;;;;3.97;2.30;;;;;;;27.76;34.16;100456.91;5085127;28;20266;-60
2021/07/07 07:27:34;;;;;;;6.95;2.47;;;;;;;27.88;35.08;100455.91;5083253;28;20055;-59
2021/07/07 07:30:00;;;;;;;5.05;2.45;;;;;;;27.78;35.67;100447.00;5064835;28;20032;-60
2021/07/07 07:32:25;;;;;;;5.78;2.75;;;;;;;27.43;34.09;100450.69;5064625;28;20364;-60
2021/07/07 07:34:51;;;;;;;5.07;2.20;;;;;;;27.42;33.47;100467.59;5064818;28;20099;-60
2021/07/07 07:37:24;;;;;;;3.88;2.13;;;;;;;27.65;34.67;100463.94;5064323;28;20021;-60
2021/07/07 07:39:53;;;;;;;2.88;2.28;;;;;;;27.65;36.05;100455.97;5064663;28;20047;-60
2021/07/07 07:42:19;;;;;;;3.22;2.22;;;;;;;27.58;34.18;100468.06;5064615;28;20250;-60
2021/07/07 07:44:46;;;;;;;3.83;2.58;;;;;;;27.64;34.27;100464.06;5064637;28;20319;-59
2021/07/07 07:47:14;;;;;;;4.55;2.95;;;;;;;27.28;33.52;100458.88;5064549;28;20059;-59
2021/07/07 07:49:40;;;;;;;4.90;2.45;;;;;;;27.32;33.08;100467.44;5064470;28;20066;-59
2021/07/07 07:52:06;;;;;;;3.10;2.80;;;;;;;27.40;34.56;100454.41;5064241;28;20320;-58
2021/07/07 07:54:33;;;;;;;5.95;2.38;;;;;;;27.71;34.79;100470.59;5064457;28;20321;-60
2021/07/07 07:57:00;;;;;;;4.05;2.20;;;;;;;27.75;34.11;100455.19;5064288;28;20044;-59
2021/07/07 07:59:26;;;;;;;3.03;2.40;;;;;;;27.52;34.45;100457.91;5064288;28;20044;-58
2021/07/07 08:01:52;;;;;;;4.95;2.70;;;;;;;27.87;35.13;100464.84;5073079;28;20040;-60
2021/07/07 08:04:19;;;;;;;3.58;2.33;;;;;;;27.90;35.03;100470.78;5082900;28;20024;-58
2021/07/07 08:06:45;;;;;;;5.18;2.70;;;;;;;27.84;35.50;100460.63;5065757;28;20052;-61
2021/07/07 08:09:12;;;;;;;3.03;2.70;;;;;;;27.75;34.41;100460.53;5083900;28;20043;-60
2021/07/07 08:11:38;;;;;;;5.18;2.60;;;;;;;27.70;35.76;100440.44;5083250;28;20059;-59
2021/07/07 08:14:04;;;;;;;5.05;2.70;;;;;;;28.05;35.51;100468.69;5083764;28;20082;-61
2021/07/07 08:16:30;;;;;;;3.45;2.20;;;;;;;27.51;33.19;100478.34;5083435;28;20040;-61
2021/07/07 08:18:56;;;;;;;3.63;2.47;;;;;;;27.90;34.14;100480.56;5083558;28;20020;-60
2021/07/07 08:21:22;;;;;;;6.93;2.88;;;;;;;28.01;34.35;100475.25;5083816;28;20055;-61
2021/07/07 08:23:48;;;;;;;3.20;2.47;;;;;;;27.90;33.70;100477.91;5065716;28;20031;-61
2021/07/07 08:26:14;;;;;;;3.75;2.50;;;;;;;28.04;34.04;100479.47;5083374;28;20042;-60
2021/07/07 08:28:40;;;;;;;4.75;2.47;;;;;;;28.04;34.19;100474.16;5083910;28;20048;-62
2021/07/07 08:31:06;;;;;;;3.42;2.35;;;;;;;28.10;34.21;100478.97;5083388;28;20044;-61
2021/07/07 08:33:33;;;;;;;3.05;2.50;;;;;;;27.35;33.91;100480.56;5082431;28;20321;-62
2021/07/07 08:35:59;;;;;;;2.90;2.60;;;;;;;27.36;33.90;100483.09;5083393;28;20375;-60
2021/07/07 08:38:25;;;;;;;5.78;2.80;;;;;;;27.31;34.49;100479.09;5082697;28;20412;-62
2021/07/07 08:40:50;;;;;;;5.13;2.72;;;;;;;27.51;34.60;100486.34;5065595;28;20051;-60
2021/07/07 08:43:16;;;;;;;3.80;2.33;;;;;;;27.77;33.40;100475.41;5083376;28;20029;-61
2021/07/07 08:45:42;;;;;;;2.45;2.25;;;;;;;27.93;35.09;100472.34;5083556;28;20078;-59
2021/07/07 08:48:08;;;;;;;2.85;2.40;;;;;;;28.10;34.07;100480.78;5082947;28;20256;-59
2021/07/07 08:50:35;;;;;;;3.67;2.70;;;;;;;28.21;34.10;100486.91;5083211;28;20055;-59
2021/07/07 08:53:04;;;;;;;2.60;2.13;;;;;;;28.11;33.63;100471.84;5083585;28;20062;-59
2021/07/07 08:55:30;;;;;;;4.03;2.67;;;;;;;28.10;35.19;100480.78;5082974;28;20075;-59
2021/07/07 08:57:57;;;;;;;5.03;2.58;;;;;;;27.99;34.17;100474.53;5083276;28;20043;-59
2021/07/07 09:00:34;;;;;;;3.75;2.60;;;;;;;28.11;34.37;100474.50;5081533;28;20047;-59
2021/07/07 09:03:03;;;;;;;2.70;2.45;;;;;;;28.27;35.76;100477.56;5065960;28;20070;-62
2021/07/07 09:05:29;;;;;;;5.10;2.55;;;;;;;28.22;33.98;100475.28;5052275;28;20346;-61
2021/07/07 09:08:04;;;;;;;4.72;2.75;;;;;;;28.30;35.41;100481.78;5050139;28;20278;-60
2021/07/07 09:10:32;;;;;;;5.80;2.55;;;;;;;28.20;33.74;100485.22;5063103;28;20047;-60
2021/07/07 09:13:27;;;;;;;4.07;2.55;;;;;;;28.39;34.34;100473.06;5076210;28;20039;-60
2021/07/07 09:15:53;;;;;;;5.20;2.85;;;;;;;28.32;34.37;100470.03;5069425;28;20367;-61
2021/07/07 09:18:33;;;;;;;5.50;2.83;;;;;;;27.95;33.55;100435.78;5083102;28;20024;-61
2021/07/07 09:21:00;;;;;;;3.88;2.38;;;;;;;28.22;33.12;100475.28;5069071;28;20049;-61
2021/07/07 09:23:28;;;;;;;3.63;2.30;;;;;;;28.45;34.18;100469.84;5068105;28;20044;-62
2021/07/07 09:25:56;;;;;;;2.67;2.47;;;;;;;28.39;33.58;100459.72;5068553;28;20329;-62
2021/07/07 09:28:32;;;;;;;2.70;2.42;;;;;;;27.97;33.32;100478.25;5065374;28;20040;-63
2021/07/07 09:31:04;;;;;;;5.35;2.90;;;;;;;28.01;33.06;100437.97;5049883;28;20120;-63
2021/07/07 09:33:42;;;;;;;5.95;2.80;;;;;;;28.28;33.70;100486.44;5049725;28;20078;-63
2021/07/07 09:36:25;;;;;;;3.20;2.60;;;;;;;28.31;33.99;100484.34;5049648;28;20060;-62
2021/07/07 09:38:53;;;;;;;3.67;2.58;;;;;;;28.04;33.47;100448.34;5087752;28;20051;-63
2021/07/07 09:41:20;;;;;;;3.60;2.58;;;;;;;28.42;33.04;100473.63;5080516;28;20265;-63
2021/07/07 09:43:51;;;;;;;7.28;2.90;;;;;;;28.39;33.56;100468.56;5080662;28;20266;-63
2021/07/07 09:46:19;;;;;;;7.60;2.97;;;;;;;28.09;33.50;100469.31;5079690;28;20047;-62
2021/07/07 09:48:46;;;;;;;4.90;2.90;;;;;;;28.07;34.38;100437.44;5086424;28;20043;-62
2021/07/07 09:51:12;;;;;;;7.78;3.53;;;;;;;28.48;33.14;100474.91;5084152;28;20051;-62
2021/07/07 09:53:38;;;;;;;5.20;2.70;;;;;;;28.58;34.06;100459.00;5089491;28;20024;-63
2021/07/07 09:56:04;;;;;;;4.90;3.13;;;;;;;28.70;33.80;100451.78;5089509;28;20337;-63
2021/07/07 09:58:30;;;;;;;5.03;2.70;;;;;;;28.74;33.89;100459.41;5073227;28;20055;-62
2021/07/07 10:00:57;;;;;;;3.03;2.42;;;;;;;28.22;34.12;100446.00;5052160;28;20049;-62
2021/07/07 10:03:23;;;;;;;5.05;3.00;;;;;;;28.01;33.48;100466.44;5061467;28;20142;-62
2021/07/07 10:05:50;;;;;;;5.47;2.95;;;;;;;28.34;34.15;100465.41;5070295;28;20278;-61
2021/07/07 10:08:19;;;;;;;3.97;2.80;;;;;;;28.15;32.68;100468.78;5050639;28;20068;-61
2021/07/07 10:10:46;;;;;;;4.13;2.47;;;;;;;28.33;34.68;100468.22;5049364;28;20364;-62
2021/07/07 10:13:15;;;;;;;3.55;2.65;;;;;;;28.21;32.89;100467.44;5049621;28;20040;-61
2021/07/07 10:15:41;;;;;;;3.95;2.53;;;;;;;28.22;33.11;100464.63;5049537;28;20037;-60
2021/07/07 10:18:08;;;;;;;5.00;2.75;;;;;;;28.23;32.80;100457.47;5049320;28;20041;-61
2021/07/07 10:20:35;;;;;;;5.88;2.78;;;;;;;28.18;33.01;100457.03;5049245;28;20048;-61
2021/07/07 10:23:04;;;;;;;4.07;2.97;;;;;;;28.24;33.36;100435.19;5053914;28;20040;-60
2021/07/07 10:25:32;;;;;;;4.93;2.65;;;;;;;28.42;32.73;100456.78;5068871;28;20056;-62
2021/07/07 10:28:05;;;;;;;3.70;2.45;;;;;;;28.00;30.64;100420.28;5065677;28;20048;-60
2021/07/07 10:31:04;;;;;;;2.90;2.47;;;;;;;28.60;32.99;100449.03;5066099;28;20341;-60
2021/07/07 10:33:33;;;;;;;2.67;2.28;;;;;;;28.65;32.73;100446.88;5015942;28;20338;-60
2021/07/07 10:36:17;;;;;;;4.38;2.45;;;;;;;28.79;33.86;100444.81;5066089;28;20048;-60
2021/07/07 10:38:56;;;;;;;4.65;2.83;;;;;;;28.80;33.28;100447.34;5065892;28;20048;-59
2021/07/07 10:41:54;;;;;;;4.00;2.45;;;;;;;28.52;34.06;100439.03;5065844;28;20255;-60
2021/07/07 10:44:22;;;;;;;3.75;2.60;;;;;;;27.97;34.11;100439.16;5021568;28;20056;-60
2021/07/07 10:47:00;;;;;;;4.82;2.70;;;;;;;28.38;34.66;100431.38;5065695;28;20271;-60
2021/07/07 10:49:25;;;;;;;5.45;3.10;;;;;;;27.98;34.83;100445.34;5065754;28;20257;-60
2021/07/07 10:51:53;;;;;;;4.93;3.17;;;;;;;28.00;34.69;100438.94;5065699;28;20049;-61
2021/07/07 10:54:25;;;;;;;5.72;3.20;;;;;;;28.31;34.51;100447.03;5065831;28;20325;-61
2021/07/07 10:56:52;;;;;;;5.45;3.10;;;;;;;28.59;35.58;100442.03;5065646;28;20044;-60
2021/07/07 10:59:40;;;;;;;5.90;2.80;;;;;;;28.44;34.10;100440.69;5065465;28;20033;-60
2021/07/07 11:02:24;;;;;;;6.22;3.10;;;;;;;28.18;34.16;100393.94;5065445;28;20040;-60
2021/07/07 11:04:52;;;;;;;5.07;2.72;;;;;;;28.37;34.81;100398.53;5083439;28;20282;-61
2021/07/07 11:07:36;;;;;;;8.52;3.00;;;;;;;28.74;35.80;100438.06;5077081;28;20345;-61
2021/07/07 11:10:15;;;;;;;3.38;2.97;;;;;;;28.57;35.08;100404.00;5065290;28;20051;-60
2021/07/07 11:12:41;;;;;;;5.32;2.90;;;;;;;28.67;34.76;100438.75;5065514;28;20368;-61
2021/07/07 11:15:09;;;;;;;5.00;2.70;;;;;;;28.51;35.73;100393.88;5065082;28;20029;-61
2021/07/07 11:17:41;;;;;;;6.15;3.10;;;;;;;28.73;35.62;100423.06;5065082;28;20048;-61
2021/07/07 11:20:08;;;;;;;6.22;3.42;;;;;;;28.56;35.28;100392.50;5064919;28;20043;-60
2021/07/07 11:22:35;;;;;;;5.18;3.22;;;;;;;28.87;34.71;100429.84;5064711;28;20087;-60
2021/07/07 11:25:04;;;;;;;4.30;2.88;;;;;;;28.39;35.63;100393.94;5064773;28;20044;-61
2021/07/07 11:27:33;;;;;;;3.63;2.70;;;;;;;28.82;35.24;100428.56;5064872;28;20040;-62